Shoshone, Idaho
Current Conditions -  °F | °C
As of 9:53 AM on Wednesday 22 Oct 2014 (Local Time) from KJER Reporting Station
Clear Clear  
Wind Chill: 39°   Ceiling: Unl
Heat Index: 44°   Visibility: 10mi
Dew Point: 33°   Wind: 10mph
Humidity: 65%   Direction: 40°NE
Pressure: 30.18"   Gusts: NA
Location:  42.94°N, 114.41°W
Report Text: KJER 221553Z AUTO 04009KT 10SM CLR 07/01 A3018 RMK AO2 SLP223 T00670006
Loading
Personal Weather Stations






























Interactive Weather Map
Tropical Storm Tracking
New forecast layout! Learn more

10-Day Weather Forecast

Advertisements
Track Severe Weather on mobile